createdAt,value
2017-11-04T00:00:23.731Z,68.90
2017-11-04T00:02:50.481Z,68.90
2017-11-04T00:05:18.473Z,69.40
2017-11-04T00:07:45.238Z,69.40
2017-11-04T00:10:11.679Z,69.10
2017-11-04T00:12:37.901Z,69.00
2017-11-04T00:17:38.532Z,69.20
2017-11-04T00:20:05.141Z,69.00
2017-11-04T00:22:32.716Z,69.30
2017-11-04T00:25:01.510Z,70.00
2017-11-04T00:27:28.303Z,70.00
2017-11-04T00:29:54.679Z,69.70
2017-11-04T00:32:20.902Z,70.70
2017-11-04T00:34:47.701Z,70.70
2017-11-04T00:37:13.903Z,70.60
2017-11-04T00:39:40.811Z,70.70
2017-11-04T00:42:08.918Z,70.10
2017-11-04T00:44:36.049Z,70.40
2017-11-04T00:47:03.105Z,70.30
2017-11-04T00:49:29.300Z,70.30
2017-11-04T00:51:56.367Z,70.70
2017-11-04T00:54:23.142Z,70.60
2017-11-04T00:56:50.252Z,71.60
2017-11-04T00:59:17.050Z,70.80
2017-11-04T01:01:43.761Z,71.70
2017-11-04T01:04:11.008Z,73.00
2017-11-04T01:06:37.662Z,72.90
2017-11-04T01:09:03.881Z,72.70
2017-11-04T01:11:30.423Z,72.70
2017-11-04T01:13:57.858Z,73.50
2017-11-04T01:16:25.610Z,73.00
2017-11-04T01:18:53.358Z,73.00
2017-11-04T01:21:21.124Z,72.30
2017-11-04T01:23:48.091Z,71.30
2017-11-04T01:26:14.911Z,71.20
2017-11-04T01:28:41.675Z,71.20
2017-11-04T01:31:09.051Z,71.00
2017-11-04T01:33:36.599Z,70.80
2017-11-04T01:36:05.080Z,70.80
2017-11-04T01:38:31.545Z,70.70
2017-11-04T01:40:58.530Z,70.70
2017-11-04T01:43:25.155Z,70.50
2017-11-04T01:45:51.760Z,71.80
2017-11-04T01:48:18.660Z,71.50
2017-11-04T01:50:45.393Z,71.50
2017-11-04T01:53:15.536Z,70.50
2017-11-04T01:55:43.036Z,70.70
2017-11-04T01:58:09.513Z,70.70
2017-11-04T02:00:35.732Z,70.70
2017-11-04T02:03:02.873Z,72.00
2017-11-04T02:05:29.091Z,72.80
2017-11-04T02:07:55.526Z,72.50
2017-11-04T02:10:22.532Z,70.80
2017-11-04T02:12:49.915Z,70.80
2017-11-04T02:15:16.931Z,70.70
2017-11-04T02:17:44.442Z,70.60
2017-11-04T02:20:12.112Z,70.80
2017-11-04T02:22:39.370Z,70.80
2017-11-04T02:25:07.067Z,71.60
2017-11-04T02:27:33.810Z,71.60
2017-11-04T02:30:00.552Z,71.00
2017-11-04T02:32:26.770Z,71.30
2017-11-04T02:34:53.511Z,71.80
2017-11-04T02:37:20.303Z,71.50
2017-11-04T02:39:46.985Z,70.90
2017-11-04T02:42:13.712Z,71.20
2017-11-04T02:44:40.452Z,72.00
2017-11-04T02:47:07.385Z,72.10
2017-11-04T02:49:34.418Z,72.00
2017-11-04T02:52:01.709Z,71.30
2017-11-04T02:54:28.496Z,71.30
2017-11-04T02:56:55.924Z,71.60
2017-11-04T02:59:22.753Z,71.60
2017-11-04T03:01:48.962Z,72.60
2017-11-04T03:04:16.159Z,73.40
2017-11-04T03:06:43.275Z,72.20
2017-11-04T03:09:09.552Z,72.10
2017-11-04T03:11:35.747Z,72.50
2017-11-04T03:14:01.927Z,73.10
2017-11-04T03:16:28.142Z,74.20
2017-11-04T03:18:54.379Z,74.50
2017-11-04T03:21:21.037Z,72.90
2017-11-04T03:23:47.725Z,72.60
2017-11-04T03:26:14.672Z,72.50
2017-11-04T03:28:41.628Z,72.40
2017-11-04T03:31:08.484Z,72.30
2017-11-04T03:33:34.758Z,72.00
2017-11-04T03:36:01.431Z,71.90
2017-11-04T03:38:28.623Z,71.40
2017-11-04T03:40:54.921Z,71.30
2017-11-04T03:43:21.939Z,71.80
2017-11-04T03:45:48.740Z,72.20
2017-11-04T03:48:16.073Z,71.70
2017-11-04T03:50:43.762Z,72.80
2017-11-04T03:53:09.975Z,72.60
2017-11-04T03:55:36.156Z,72.80
2017-11-04T03:58:04.357Z,73.10
2017-11-04T04:00:30.582Z,73.10
2017-11-04T04:02:56.783Z,72.60
2017-11-04T04:05:23.902Z,74.30
2017-11-04T04:07:51.209Z,75.20
2017-11-04T04:10:18.645Z,74.30
2017-11-04T04:12:46.107Z,73.70
2017-11-04T04:15:14.410Z,73.10
2017-11-04T04:17:41.493Z,72.60
2017-11-04T04:20:07.919Z,72.50
2017-11-04T04:22:34.713Z,72.80
2017-11-04T04:25:00.955Z,72.90
2017-11-04T04:27:27.444Z,72.60
2017-11-04T04:29:54.404Z,72.90
2017-11-04T04:32:22.982Z,73.20
2017-11-04T04:34:50.216Z,73.00
2017-11-04T04:37:17.341Z,72.90
2017-11-04T04:39:44.574Z,73.40
2017-11-04T04:42:11.816Z,73.60
2017-11-04T04:44:39.285Z,73.80
2017-11-04T04:47:06.026Z,74.00
2017-11-04T04:49:32.884Z,73.60
2017-11-04T04:51:59.052Z,72.80
2017-11-04T04:54:28.890Z,72.30
2017-11-04T04:56:55.817Z,72.30
2017-11-04T04:59:23.351Z,71.80
2017-11-04T05:01:49.567Z,71.70
2017-11-04T05:04:15.850Z,71.60
2017-11-04T05:06:42.636Z,72.30
2017-11-04T05:09:09.124Z,72.20
2017-11-04T05:11:35.896Z,72.10
2017-11-04T05:14:02.097Z,72.20
2017-11-04T05:16:28.321Z,72.60
2017-11-04T05:18:54.506Z,73.00
2017-11-04T05:21:21.290Z,72.60
2017-11-04T05:23:47.908Z,72.40
2017-11-04T05:26:15.209Z,72.60
2017-11-04T05:28:42.075Z,72.60
2017-11-04T05:31:08.263Z,73.60
2017-11-04T05:33:34.455Z,74.60
2017-11-04T05:36:02.198Z,75.00
2017-11-04T05:38:28.669Z,74.80
2017-11-04T05:40:56.073Z,74.40
2017-11-04T05:43:23.779Z,74.50
2017-11-04T05:45:50.735Z,74.70
2017-11-04T05:48:17.182Z,74.70
2017-11-04T05:50:43.406Z,74.00
2017-11-04T05:53:10.833Z,73.70
2017-11-04T05:55:37.910Z,73.60
2017-11-04T05:58:04.236Z,73.50
2017-11-04T06:00:31.499Z,72.90
2017-11-04T06:02:57.706Z,73.00
2017-11-04T06:05:23.935Z,72.80
2017-11-04T06:07:50.383Z,73.20
2017-11-04T06:10:18.255Z,72.90
2017-11-04T06:12:44.561Z,73.80
2017-11-04T06:15:11.793Z,74.00
2017-11-04T06:17:38.772Z,74.10
2017-11-04T06:20:04.980Z,74.00
2017-11-04T06:22:31.839Z,74.30
2017-11-04T06:24:58.940Z,74.50
2017-11-04T06:27:26.332Z,74.80
2017-11-04T06:29:52.745Z,74.70
2017-11-04T06:32:20.336Z,75.50
2017-11-04T06:34:47.388Z,74.60
2017-11-04T06:37:13.898Z,74.50
2017-11-04T06:39:40.995Z,74.00
2017-11-04T06:42:07.209Z,74.00
2017-11-04T06:54:23.786Z,74.40
2017-11-04T06:56:50.010Z,75.40
2017-11-04T06:59:16.244Z,75.00
2017-11-04T07:01:42.441Z,75.40
2017-11-04T07:04:09.283Z,75.80
2017-11-04T07:06:36.142Z,76.00
2017-11-04T07:09:02.685Z,75.70
2017-11-04T07:11:29.695Z,75.50
2017-11-04T07:13:56.446Z,75.50
2017-11-04T07:16:22.667Z,75.80
2017-11-04T07:18:49.144Z,75.80
2017-11-04T07:21:15.603Z,75.70
2017-11-04T07:23:42.566Z,75.80
2017-11-04T07:26:09.526Z,75.80
2017-11-04T07:28:35.763Z,75.80
2017-11-04T07:31:02.033Z,76.00
2017-11-04T07:33:28.259Z,75.80
2017-11-04T07:35:54.495Z,76.00
2017-11-04T07:38:21.019Z,76.00
2017-11-04T07:40:47.342Z,76.20
2017-11-04T07:43:13.664Z,76.40
2017-11-04T07:45:40.883Z,76.80
2017-11-04T07:48:07.188Z,76.50
2017-11-04T07:50:35.218Z,76.70
2017-11-04T07:53:01.514Z,76.60
2017-11-04T07:55:28.044Z,76.90
2017-11-04T07:57:55.499Z,77.40
2017-11-04T08:00:21.766Z,78.90
2017-11-04T08:02:48.361Z,79.10
2017-11-04T08:05:16.309Z,78.00
2017-11-04T08:07:43.414Z,78.00
2017-11-04T08:10:09.683Z,77.90
2017-11-04T08:12:35.950Z,77.50
2017-11-04T08:15:02.267Z,76.90
2017-11-04T08:17:28.596Z,73.00
2017-11-04T08:20:00.571Z,73.20
2017-11-04T08:22:26.832Z,71.80
2017-11-04T08:24:53.037Z,71.40
2017-11-04T08:27:19.520Z,71.10
2017-11-04T08:29:45.884Z,71.80
2017-11-04T08:32:12.419Z,72.40
2017-11-04T08:34:38.845Z,71.90
2017-11-04T08:37:05.115Z,71.40
2017-11-04T08:39:32.075Z,70.30
2017-11-04T08:41:58.392Z,70.30
2017-11-04T08:44:26.522Z,70.90
2017-11-04T08:46:52.857Z,70.40
2017-11-04T08:49:19.066Z,69.80
2017-11-04T08:51:46.027Z,70.00
2017-11-04T08:54:12.304Z,70.00
2017-11-04T08:56:39.106Z,69.70
2017-11-04T08:59:05.506Z,68.90
2017-11-04T09:01:32.457Z,67.30
2017-11-04T09:03:59.468Z,65.40
2017-11-04T09:06:26.023Z,65.40
2017-11-04T09:08:52.231Z,66.40
2017-11-04T09:11:18.456Z,65.40
2017-11-04T09:13:44.833Z,64.50
2017-11-04T09:16:12.506Z,63.30
2017-11-04T09:18:39.401Z,63.40
2017-11-04T09:21:05.634Z,63.20
2017-11-04T09:23:32.219Z,63.10
2017-11-04T09:26:00.341Z,61.40
2017-11-04T09:28:27.122Z,59.30
2017-11-04T09:30:54.081Z,58.70
2017-11-04T09:33:21.533Z,57.20
2017-11-04T09:35:48.586Z,57.90
2017-11-04T09:38:14.802Z,57.90
2017-11-04T09:40:41.262Z,59.50
2017-11-04T09:43:07.939Z,58.00
2017-11-04T09:45:35.696Z,56.00
2017-11-04T09:48:02.858Z,54.70
2017-11-04T09:50:29.838Z,55.10
2017-11-04T09:52:56.235Z,55.00
2017-11-04T09:55:23.211Z,55.60
2017-11-04T09:57:49.594Z,55.60
2017-11-04T10:00:15.898Z,56.10
2017-11-04T10:02:42.112Z,56.40
2017-11-04T10:05:08.690Z,56.70
2017-11-04T10:07:34.913Z,55.70
2017-11-04T10:10:01.144Z,54.60
2017-11-04T10:12:28.151Z,54.90
2017-11-04T10:14:54.362Z,55.30
2017-11-04T10:17:21.281Z,54.50
2017-11-04T10:19:48.803Z,54.80
2017-11-04T10:22:15.257Z,54.80
2017-11-04T10:24:41.521Z,55.40
2017-11-04T10:27:08.127Z,55.20
2017-11-04T10:29:35.227Z,55.30
2017-11-04T10:32:02.008Z,55.30
2017-11-04T10:34:28.252Z,54.10
2017-11-04T10:36:55.509Z,55.20
2017-11-04T10:39:22.797Z,54.50
2017-11-04T10:41:49.548Z,54.50
2017-11-04T10:44:16.405Z,53.60
2017-11-04T10:46:42.633Z,53.60
2017-11-04T10:49:09.404Z,54.20
2017-11-04T10:51:36.921Z,53.90
2017-11-04T10:54:03.472Z,53.80
2017-11-04T10:56:29.668Z,55.30
2017-11-04T10:58:56.515Z,55.50
2017-11-04T11:01:22.860Z,55.50
2017-11-04T11:03:50.059Z,55.20
2017-11-04T11:06:17.127Z,54.90
2017-11-04T11:08:43.353Z,54.90
2017-11-04T11:11:09.859Z,54.50
2017-11-04T11:13:37.192Z,54.90
2017-11-04T11:16:05.751Z,54.10
2017-11-04T11:18:32.012Z,53.60
2017-11-04T11:20:58.875Z,53.30
2017-11-04T11:23:26.369Z,53.70
2017-11-04T11:25:52.610Z,53.70
2017-11-04T11:28:19.228Z,53.90
2017-11-04T11:30:46.483Z,53.60
2017-11-04T11:33:13.515Z,53.50
2017-11-04T11:35:41.144Z,53.60
2017-11-04T11:38:08.718Z,53.30
2017-11-04T11:40:35.696Z,54.40
2017-11-04T11:43:02.018Z,54.30
2017-11-04T11:45:28.232Z,54.40
2017-11-04T11:47:55.174Z,54.10
2017-11-04T11:50:22.205Z,53.60
2017-11-04T11:52:49.792Z,53.60
2017-11-04T11:55:16.448Z,53.60
2017-11-04T11:57:43.386Z,54.30
2017-11-04T12:00:11.443Z,53.30
2017-11-04T12:02:37.670Z,53.30
2017-11-04T12:05:04.961Z,53.20
2017-11-04T12:07:31.908Z,51.40
2017-11-04T12:09:59.087Z,52.30
2017-11-04T12:12:25.507Z,52.40
2017-11-04T12:14:51.858Z,53.00
2017-11-04T12:17:19.048Z,53.20
2017-11-04T12:19:45.321Z,53.20
2017-11-04T12:22:12.065Z,52.80
2017-11-04T12:24:39.148Z,52.90
2017-11-04T12:27:05.461Z,52.90
2017-11-04T12:29:31.807Z,53.20
2017-11-04T12:31:58.657Z,53.80
2017-11-04T12:34:25.699Z,54.40
2017-11-04T12:36:52.098Z,54.40
2017-11-04T12:39:20.102Z,54.50
2017-11-04T12:41:46.644Z,54.50
2017-11-04T12:44:13.718Z,54.40
2017-11-04T12:46:39.933Z,54.40
2017-11-04T12:49:07.377Z,54.00
2017-11-04T12:51:34.160Z,54.20
2017-11-04T12:54:01.152Z,54.40
2017-11-04T12:56:27.672Z,54.40
2017-11-04T12:58:55.322Z,54.60
2017-11-04T13:01:22.411Z,54.20
2017-11-04T13:03:48.848Z,54.20
2017-11-04T13:06:15.675Z,54.60
2017-11-04T13:08:42.118Z,55.00
2017-11-04T13:11:09.476Z,54.20
2017-11-04T13:13:35.740Z,54.20
2017-11-04T13:16:02.227Z,54.10
2017-11-04T13:18:28.527Z,54.10
2017-11-04T13:20:55.537Z,53.50
2017-11-04T13:23:22.391Z,53.50
2017-11-04T13:25:49.776Z,54.00
2017-11-04T13:28:17.876Z,54.00
2017-11-04T13:30:44.114Z,54.10
2017-11-04T13:33:10.334Z,54.10
2017-11-04T13:35:44.478Z,54.20
2017-11-04T13:38:11.273Z,54.10
2017-11-04T13:40:38.338Z,54.50
2017-11-04T13:43:05.330Z,54.40
2017-11-04T13:45:33.073Z,54.00
2017-11-04T13:47:59.865Z,54.00
2017-11-04T13:50:26.143Z,54.50
2017-11-04T13:52:52.421Z,54.50
2017-11-04T13:55:18.823Z,54.40
2017-11-04T13:57:46.483Z,54.40
2017-11-04T14:00:13.131Z,54.40
2017-11-04T14:02:40.105Z,54.30
2017-11-04T14:05:06.841Z,54.20
2017-11-04T14:07:33.305Z,54.70
2017-11-04T14:10:00.383Z,55.10
2017-11-04T14:12:28.011Z,54.30
2017-11-04T14:14:54.857Z,54.20
2017-11-04T14:17:21.187Z,54.00
2017-11-04T14:19:47.683Z,54.30
2017-11-04T14:22:14.982Z,54.40
2017-11-04T14:24:41.798Z,54.60
2017-11-04T14:27:08.027Z,54.70
2017-11-04T14:29:35.158Z,54.70
2017-11-04T14:32:01.952Z,54.80
2017-11-04T14:34:29.515Z,54.70
2017-11-04T14:36:56.422Z,55.20
2017-11-04T14:39:22.724Z,55.50
2017-11-04T14:41:50.857Z,55.60
2017-11-04T14:44:17.571Z,55.60
2017-11-04T14:46:43.998Z,55.20
2017-11-04T14:49:10.803Z,55.40
2017-11-04T14:51:37.777Z,55.70
2017-11-04T14:54:05.558Z,55.60
2017-11-04T14:56:32.232Z,55.70
2017-11-04T14:59:00.168Z,56.10
2017-11-04T15:01:26.961Z,56.00
2017-11-04T15:03:54.513Z,55.50
2017-11-04T15:06:21.591Z,55.50
2017-11-04T15:08:47.842Z,55.50
2017-11-04T15:11:14.054Z,55.70
2017-11-04T15:13:40.922Z,55.80
2017-11-04T15:16:07.672Z,55.80
2017-11-04T15:18:34.503Z,55.80
2017-11-04T15:21:00.926Z,55.80
2017-11-04T15:23:27.967Z,55.90
2017-11-04T15:25:54.481Z,55.90
2017-11-04T15:28:22.505Z,56.10
2017-11-04T15:30:49.662Z,56.40
2017-11-04T15:33:16.635Z,56.60
2017-11-04T15:35:43.190Z,56.60
2017-11-04T15:38:09.398Z,56.60
2017-11-04T15:40:38.057Z,56.70
2017-11-04T15:43:05.617Z,56.40
2017-11-04T15:45:32.913Z,56.40
2017-11-04T15:47:59.984Z,56.30
2017-11-04T15:50:26.730Z,56.50
2017-11-04T15:52:53.857Z,56.70
2017-11-04T15:55:20.890Z,57.10
2017-11-04T15:57:47.159Z,57.10
2017-11-04T16:00:13.997Z,56.70
2017-11-04T16:02:40.329Z,57.20
2017-11-04T16:05:07.085Z,57.80
2017-11-04T16:07:33.843Z,57.50
2017-11-04T16:19:51.334Z,58.20
2017-11-04T16:22:18.879Z,59.20
2017-11-04T16:24:45.547Z,59.20
2017-11-04T16:27:12.553Z,59.30
2017-11-04T16:29:38.775Z,59.30
2017-11-04T16:32:05.157Z,59.60
2017-11-04T16:34:31.364Z,60.30
2017-11-04T16:36:59.896Z,58.90
2017-11-04T16:39:26.879Z,59.70
2017-11-04T16:41:53.224Z,59.70
2017-11-04T16:44:20.575Z,60.40
2017-11-04T16:46:48.076Z,59.90
2017-11-04T16:49:14.754Z,59.90
2017-11-04T16:51:42.221Z,59.30
2017-11-04T16:54:08.669Z,59.20
2017-11-04T16:56:35.541Z,59.90
2017-11-04T16:59:02.311Z,63.50
2017-11-04T17:01:29.391Z,62.70
2017-11-04T17:03:57.335Z,61.60
2017-11-04T17:06:23.725Z,61.50
2017-11-04T17:08:50.737Z,63.40
2017-11-04T17:11:18.923Z,63.20
2017-11-04T17:13:45.874Z,61.90
2017-11-04T17:16:13.062Z,61.90
2017-11-04T17:18:40.062Z,61.40
2017-11-04T17:21:07.054Z,62.40
2017-11-04T17:23:33.615Z,62.30
2017-11-04T17:26:01.087Z,64.70
2017-11-04T17:28:27.371Z,64.70
2017-11-04T17:30:53.599Z,63.70
2017-11-04T17:33:19.861Z,63.70
2017-11-04T17:35:46.613Z,63.20
2017-11-04T17:38:13.567Z,65.90
2017-11-04T17:40:40.888Z,65.40
2017-11-04T17:43:08.404Z,66.20
2017-11-04T17:45:35.626Z,64.80
2017-11-04T17:48:04.630Z,65.30
2017-11-04T17:50:32.062Z,64.60
2017-11-04T17:52:58.649Z,64.60
2017-11-04T17:55:25.307Z,64.50
2017-11-04T17:57:52.663Z,66.80
2017-11-04T18:00:19.418Z,65.90
2017-11-04T18:02:46.083Z,65.10
2017-11-04T18:05:13.675Z,66.60
2017-11-04T18:07:39.882Z,66.70
2017-11-04T18:10:07.349Z,65.70
2017-11-04T18:12:34.656Z,65.90
2017-11-04T18:15:02.473Z,66.70
2017-11-04T18:17:29.828Z,67.50
2017-11-04T18:19:57.854Z,67.30
2017-11-04T18:22:24.856Z,66.30
2017-11-04T18:24:51.340Z,66.20
2017-11-04T18:27:19.255Z,66.90
2017-11-04T18:29:46.220Z,66.80
2017-11-04T18:32:12.431Z,66.40
2017-11-04T18:34:39.179Z,67.00
2017-11-04T18:37:05.379Z,68.10
2017-11-04T18:39:32.089Z,68.50
2017-11-04T18:41:59.200Z,68.90
2017-11-04T18:44:25.526Z,68.90
2017-11-04T18:46:51.756Z,68.80
2017-11-04T18:49:17.965Z,66.70
2017-11-04T18:51:44.851Z,67.70
2017-11-04T18:54:11.284Z,67.80
2017-11-04T18:56:38.277Z,68.50
2017-11-04T18:59:04.534Z,68.40
2017-11-04T19:01:30.736Z,68.20
2017-11-04T19:03:56.946Z,67.10
2017-11-04T19:06:23.423Z,66.90
2017-11-04T19:08:50.434Z,67.60
2017-11-04T19:11:16.727Z,67.40
2017-11-04T19:13:43.154Z,68.70
2017-11-04T19:16:10.117Z,69.20
2017-11-04T19:18:37.960Z,69.40
2017-11-04T19:21:04.929Z,68.30
2017-11-04T19:23:33.378Z,67.90
2017-11-04T19:26:00.168Z,67.90
2017-11-04T19:28:26.433Z,69.30
2017-11-04T19:30:54.401Z,69.10
2017-11-04T19:33:20.770Z,69.20
2017-11-04T19:35:47.962Z,69.20
2017-11-04T19:38:14.159Z,69.10
2017-11-04T19:40:41.271Z,70.10
2017-11-04T19:43:08.896Z,68.70
2017-11-04T19:45:35.728Z,68.60
2017-11-04T19:48:02.501Z,69.30
2017-11-04T19:50:29.139Z,68.60
2017-11-04T19:52:56.755Z,70.80
2017-11-04T19:55:24.728Z,70.80
2017-11-04T19:57:52.152Z,70.60
2017-11-04T20:00:18.822Z,70.50
2017-11-04T20:02:45.998Z,69.00
2017-11-04T20:05:13.292Z,71.20
2017-11-04T20:07:40.148Z,70.20
2017-11-04T20:10:07.517Z,70.20
2017-11-04T20:12:33.948Z,70.20
2017-11-04T20:15:01.833Z,70.10
2017-11-04T20:17:29.627Z,69.20
2017-11-04T20:19:56.739Z,69.10
2017-11-04T20:22:23.043Z,70.20
2017-11-04T20:24:49.729Z,70.20
2017-11-04T20:27:16.814Z,72.10
2017-11-04T20:29:44.660Z,72.00
2017-11-04T20:32:10.951Z,70.90
2017-11-04T20:34:37.241Z,70.10
2017-11-04T20:37:03.592Z,69.40
2017-11-04T20:39:31.687Z,69.20
2017-11-04T20:41:58.409Z,69.20
2017-11-04T20:44:25.398Z,70.70
2017-11-04T20:46:51.632Z,70.60
2017-11-04T20:49:18.275Z,69.90
2017-11-04T20:51:46.016Z,70.70
2017-11-04T20:54:12.257Z,70.60
2017-11-04T20:56:39.430Z,71.90
2017-11-04T20:59:06.941Z,70.10
2017-11-04T21:01:34.161Z,70.10
2017-11-04T21:04:01.282Z,70.90
2017-11-04T21:06:28.991Z,69.90
2017-11-04T21:08:55.711Z,69.70
2017-11-04T21:11:22.706Z,70.10
2017-11-04T21:13:49.027Z,69.90
2017-11-04T21:16:15.299Z,70.40
2017-11-04T21:18:42.141Z,69.90
2017-11-04T21:21:08.428Z,71.70
2017-11-04T21:23:35.266Z,70.30
2017-11-04T21:26:01.487Z,70.60
2017-11-04T21:28:28.115Z,72.00
2017-11-04T21:30:54.356Z,72.50
2017-11-04T21:33:21.259Z,70.90
2017-11-04T21:35:49.074Z,72.90
2017-11-04T21:38:16.789Z,72.80
2017-11-04T21:40:45.806Z,71.80
2017-11-04T21:43:12.093Z,71.70
2017-11-04T21:45:38.614Z,70.60
2017-11-04T21:48:05.182Z,70.10
2017-11-04T21:50:32.503Z,70.30
2017-11-04T21:52:59.271Z,70.30
2017-11-04T21:55:25.479Z,70.00
2017-11-04T21:57:52.252Z,70.30
2017-11-04T22:00:22.847Z,71.00
2017-11-04T22:02:49.849Z,69.80
2017-11-04T22:05:17.046Z,69.80
2017-11-04T22:07:44.900Z,70.40
2017-11-04T22:10:12.686Z,72.40
2017-11-04T22:12:39.991Z,72.60
2017-11-04T22:15:06.815Z,72.10
2017-11-04T22:17:33.319Z,71.20
2017-11-04T22:20:01.207Z,71.30
2017-11-04T22:22:27.804Z,71.30
2017-11-04T22:24:54.791Z,70.60
2017-11-04T22:27:22.731Z,70.60
2017-11-04T22:29:49.032Z,70.60
2017-11-04T22:32:15.269Z,70.50
2017-11-04T22:34:42.082Z,71.70
2017-11-04T22:37:08.875Z,71.40
2017-11-04T22:39:35.126Z,71.70
2017-11-04T22:42:01.383Z,71.70
2017-11-04T22:44:27.568Z,70.50
2017-11-04T22:46:53.817Z,70.60
2017-11-04T22:49:21.042Z,73.20
2017-11-04T22:51:48.817Z,71.90
2017-11-04T22:54:16.939Z,72.00
2017-11-04T22:56:43.992Z,71.80
2017-11-04T22:59:10.683Z,71.70
2017-11-04T23:01:38.218Z,71.50
2017-11-04T23:04:04.491Z,71.30
2017-11-04T23:06:30.737Z,70.70
2017-11-04T23:08:59.915Z,71.40
2017-11-04T23:11:26.949Z,70.80
2017-11-04T23:14:00.854Z,71.50
2017-11-04T23:16:28.794Z,71.40
2017-11-04T23:18:54.990Z,71.30
2017-11-04T23:21:21.309Z,71.20
2017-11-04T23:23:48.073Z,71.00
2017-11-04T23:26:14.337Z,71.00
2017-11-04T23:28:42.333Z,70.70
2017-11-04T23:31:08.571Z,70.60
2017-11-04T23:33:35.367Z,71.10
2017-11-04T23:36:01.996Z,72.20
2017-11-04T23:38:28.232Z,71.70
2017-11-04T23:40:54.904Z,72.40
2017-11-04T23:43:21.950Z,71.70
2017-11-04T23:45:48.797Z,71.70
2017-11-04T23:48:15.047Z,70.90
2017-11-04T23:50:41.701Z,73.00
2017-11-04T23:53:08.755Z,73.60
2017-11-04T23:55:35.026Z,73.60
2017-11-04T23:58:02.035Z,71.50
